sensor_id;sensor_type;location;lat;lon;timestamp;P1;durP1;ratioP1;P2;durP2;ratioP2
8538;SDS011;4307;53.868;11.680;2023-12-20T00:00:26;4.30;;;1.60;;
8538;SDS011;4307;53.868;11.680;2023-12-20T00:02:53;3.17;;;2.43;;
8538;SDS011;4307;53.868;11.680;2023-12-20T00:05:19;3.23;;;1.83;;
8538;SDS011;4307;53.868;11.680;2023-12-20T00:07:46;2.77;;;1.17;;
8538;SDS011;4307;53.868;11.680;2023-12-20T00:10:13;5.50;;;1.13;;
8538;SDS011;4307;53.868;11.680;2023-12-20T00:12:39;7.03;;;1.63;;
8538;SDS011;4307;53.868;11.680;2023-12-20T00:15:06;3.87;;;1.10;;
8538;SDS011;4307;53.868;11.680;2023-12-20T00:17:35;5.50;;;1.13;;
8538;SDS011;4307;53.868;11.680;2023-12-20T00:20:01;7.27;;;1.97;;
8538;SDS011;4307;53.868;11.680;2023-12-20T00:22:28;7.03;;;1.57;;
8538;SDS011;4307;53.868;11.680;2023-12-20T00:24:55;3.63;;;1.03;;
8538;SDS011;4307;53.868;11.680;2023-12-20T00:27:21;5.97;;;1.40;;
8538;SDS011;4307;53.868;11.680;2023-12-20T00:29:49;6.30;;;1.23;;
8538;SDS011;4307;53.868;11.680;2023-12-20T00:32:15;4.87;;;1.67;;
8538;SDS011;4307;53.868;11.680;2023-12-20T00:34:44;5.10;;;2.03;;
8538;SDS011;4307;53.868;11.680;2023-12-20T00:37:10;3.43;;;1.40;;
8538;SDS011;4307;53.868;11.680;2023-12-20T00:39:37;3.13;;;1.53;;
8538;SDS011;4307;53.868;11.680;2023-12-20T00:42:04;3.87;;;1.70;;
8538;SDS011;4307;53.868;11.680;2023-12-20T00:44:31;4.23;;;2.30;;
8538;SDS011;4307;53.868;11.680;2023-12-20T00:46:57;4.27;;;1.50;;
8538;SDS011;4307;53.868;11.680;2023-12-20T00:49:24;7.77;;;2.10;;
8538;SDS011;4307;53.868;11.680;2023-12-20T00:51:52;9.97;;;2.10;;
8538;SDS011;4307;53.868;11.680;2023-12-20T00:54:19;8.53;;;2.17;;
8538;SDS011;4307;53.868;11.680;2023-12-20T00:56:45;5.80;;;1.93;;
8538;SDS011;4307;53.868;11.680;2023-12-20T00:59:12;5.83;;;1.70;;
8538;SDS011;4307;53.868;11.680;2023-12-20T01:01:39;2.73;;;2.07;;
8538;SDS011;4307;53.868;11.680;2023-12-20T01:04:07;9.40;;;2.07;;
8538;SDS011;4307;53.868;11.680;2023-12-20T01:06:33;5.93;;;2.33;;
8538;SDS011;4307;53.868;11.680;2023-12-20T01:09:01;5.43;;;1.67;;
8538;SDS011;4307;53.868;11.680;2023-12-20T01:11:28;2.80;;;1.27;;
8538;SDS011;4307;53.868;11.680;2023-12-20T01:13:55;1.87;;;1.40;;
8538;SDS011;4307;53.868;11.680;2023-12-20T01:16:21;4.17;;;1.13;;
8538;SDS011;4307;53.868;11.680;2023-12-20T01:18:48;6.40;;;2.10;;
8538;SDS011;4307;53.868;11.680;2023-12-20T01:21:14;6.23;;;1.63;;
8538;SDS011;4307;53.868;11.680;2023-12-20T01:23:41;5.70;;;1.53;;
8538;SDS011;4307;53.868;11.680;2023-12-20T01:26:09;6.37;;;1.40;;
8538;SDS011;4307;53.868;11.680;2023-12-20T01:28:36;5.67;;;1.50;;
8538;SDS011;4307;53.868;11.680;2023-12-20T01:31:03;7.27;;;1.90;;
8538;SDS011;4307;53.868;11.680;2023-12-20T01:33:30;7.43;;;1.90;;
8538;SDS011;4307;53.868;11.680;2023-12-20T01:35:56;10.90;;;2.37;;
8538;SDS011;4307;53.868;11.680;2023-12-20T01:38:23;7.83;;;2.20;;
8538;SDS011;4307;53.868;11.680;2023-12-20T01:40:50;15.73;;;2.70;;
8538;SDS011;4307;53.868;11.680;2023-12-20T01:43:18;4.83;;;1.73;;
8538;SDS011;4307;53.868;11.680;2023-12-20T01:45:44;9.37;;;2.27;;
8538;SDS011;4307;53.868;11.680;2023-12-20T01:48:11;14.33;;;2.60;;
8538;SDS011;4307;53.868;11.680;2023-12-20T01:50:38;8.13;;;2.40;;
8538;SDS011;4307;53.868;11.680;2023-12-20T01:53:07;13.40;;;2.70;;
8538;SDS011;4307;53.868;11.680;2023-12-20T01:55:35;8.60;;;2.63;;
8538;SDS011;4307;53.868;11.680;2023-12-20T01:58:04;14.27;;;3.10;;
8538;SDS011;4307;53.868;11.680;2023-12-20T02:00:33;9.13;;;2.40;;
8538;SDS011;4307;53.868;11.680;2023-12-20T02:03:00;10.97;;;3.07;;
8538;SDS011;4307;53.868;11.680;2023-12-20T02:05:27;13.17;;;2.97;;
8538;SDS011;4307;53.868;11.680;2023-12-20T02:07:54;11.53;;;3.03;;
8538;SDS011;4307;53.868;11.680;2023-12-20T02:10:21;16.73;;;3.20;;
8538;SDS011;4307;53.868;11.680;2023-12-20T02:12:48;6.97;;;2.60;;
8538;SDS011;4307;53.868;11.680;2023-12-20T02:15:14;12.10;;;2.73;;
8538;SDS011;4307;53.868;11.680;2023-12-20T02:17:43;15.57;;;2.57;;
8538;SDS011;4307;53.868;11.680;2023-12-20T02:20:11;10.20;;;2.47;;
8538;SDS011;4307;53.868;11.680;2023-12-20T02:22:39;9.43;;;2.07;;
8538;SDS011;4307;53.868;11.680;2023-12-20T02:25:05;12.80;;;2.60;;
8538;SDS011;4307;53.868;11.680;2023-12-20T02:27:32;12.17;;;2.33;;
8538;SDS011;4307;53.868;11.680;2023-12-20T02:30:00;10.50;;;2.47;;
8538;SDS011;4307;53.868;11.680;2023-12-20T02:32:28;12.50;;;2.07;;
8538;SDS011;4307;53.868;11.680;2023-12-20T02:34:55;13.67;;;1.97;;
8538;SDS011;4307;53.868;11.680;2023-12-20T02:37:21;17.97;;;3.03;;
8538;SDS011;4307;53.868;11.680;2023-12-20T02:39:49;10.93;;;2.13;;
8538;SDS011;4307;53.868;11.680;2023-12-20T02:42:16;7.73;;;2.30;;
8538;SDS011;4307;53.868;11.680;2023-12-20T02:44:42;8.03;;;2.47;;
8538;SDS011;4307;53.868;11.680;2023-12-20T02:47:09;3.90;;;1.53;;
8538;SDS011;4307;53.868;11.680;2023-12-20T02:49:36;6.50;;;2.83;;
8538;SDS011;4307;53.868;11.680;2023-12-20T02:52:03;11.57;;;2.20;;
8538;SDS011;4307;53.868;11.680;2023-12-20T02:54:30;6.57;;;1.83;;
8538;SDS011;4307;53.868;11.680;2023-12-20T02:56:58;10.07;;;2.00;;
8538;SDS011;4307;53.868;11.680;2023-12-20T02:59:24;8.20;;;2.10;;
8538;SDS011;4307;53.868;11.680;2023-12-20T03:01:51;10.43;;;2.27;;
8538;SDS011;4307;53.868;11.680;2023-12-20T03:04:17;11.63;;;2.03;;
8538;SDS011;4307;53.868;11.680;2023-12-20T03:06:44;12.83;;;1.83;;
8538;SDS011;4307;53.868;11.680;2023-12-20T03:09:11;12.73;;;2.43;;
8538;SDS011;4307;53.868;11.680;2023-12-20T03:11:38;16.13;;;2.53;;
8538;SDS011;4307;53.868;11.680;2023-12-20T03:14:06;10.77;;;2.80;;
8538;SDS011;4307;53.868;11.680;2023-12-20T03:16:33;6.63;;;2.03;;
8538;SDS011;4307;53.868;11.680;2023-12-20T03:18:59;10.03;;;2.30;;
8538;SDS011;4307;53.868;11.680;2023-12-20T03:21:26;14.30;;;2.60;;
8538;SDS011;4307;53.868;11.680;2023-12-20T03:23:53;10.27;;;2.07;;
8538;SDS011;4307;53.868;11.680;2023-12-20T03:26:19;10.97;;;2.50;;
8538;SDS011;4307;53.868;11.680;2023-12-20T03:28:47;13.70;;;2.40;;
8538;SDS011;4307;53.868;11.680;2023-12-20T03:31:15;8.00;;;3.00;;
8538;SDS011;4307;53.868;11.680;2023-12-20T03:33:42;11.97;;;2.50;;
8538;SDS011;4307;53.868;11.680;2023-12-20T03:36:09;13.00;;;2.47;;
8538;SDS011;4307;53.868;11.680;2023-12-20T03:38:35;8.77;;;2.60;;
8538;SDS011;4307;53.868;11.680;2023-12-20T03:41:02;14.33;;;3.27;;
8538;SDS011;4307;53.868;11.680;2023-12-20T03:43:29;12.07;;;3.37;;
8538;SDS011;4307;53.868;11.680;2023-12-20T03:45:56;11.13;;;3.00;;
8538;SDS011;4307;53.868;11.680;2023-12-20T03:48:25;8.83;;;3.20;;
8538;SDS011;4307;53.868;11.680;2023-12-20T03:50:51;14.83;;;3.50;;
8538;SDS011;4307;53.868;11.680;2023-12-20T03:53:18;12.10;;;3.37;;
8538;SDS011;4307;53.868;11.680;2023-12-20T03:55:44;20.80;;;3.83;;
8538;SDS011;4307;53.868;11.680;2023-12-20T03:58:11;9.40;;;3.10;;
8538;SDS011;4307;53.868;11.680;2023-12-20T04:00:38;12.37;;;3.60;;
8538;SDS011;4307;53.868;11.680;2023-12-20T04:03:05;11.43;;;3.27;;
8538;SDS011;4307;53.868;11.680;2023-12-20T04:05:33;12.70;;;2.90;;
8538;SDS011;4307;53.868;11.680;2023-12-20T04:07:59;8.37;;;3.30;;
8538;SDS011;4307;53.868;11.680;2023-12-20T04:10:28;6.47;;;3.10;;
8538;SDS011;4307;53.868;11.680;2023-12-20T04:12:54;12.13;;;3.67;;
8538;SDS011;4307;53.868;11.680;2023-12-20T04:15:21;10.10;;;3.20;;
8538;SDS011;4307;53.868;11.680;2023-12-20T04:17:48;17.33;;;3.77;;
8538;SDS011;4307;53.868;11.680;2023-12-20T04:20:14;9.47;;;3.20;;
8538;SDS011;4307;53.868;11.680;2023-12-20T04:22:42;13.60;;;3.77;;
8538;SDS011;4307;53.868;11.680;2023-12-20T04:25:09;16.20;;;3.83;;
8538;SDS011;4307;53.868;11.680;2023-12-20T04:27:36;11.27;;;3.17;;
8538;SDS011;4307;53.868;11.680;2023-12-20T04:30:02;11.60;;;3.57;;
8538;SDS011;4307;53.868;11.680;2023-12-20T04:32:29;6.33;;;3.47;;
8538;SDS011;4307;53.868;11.680;2023-12-20T04:34:56;11.33;;;3.23;;
8538;SDS011;4307;53.868;11.680;2023-12-20T04:37:23;12.70;;;3.57;;
8538;SDS011;4307;53.868;11.680;2023-12-20T04:39:51;9.70;;;3.60;;
8538;SDS011;4307;53.868;11.680;2023-12-20T04:42:18;8.60;;;3.47;;
8538;SDS011;4307;53.868;11.680;2023-12-20T04:44:44;12.20;;;3.70;;
8538;SDS011;4307;53.868;11.680;2023-12-20T04:47:11;9.60;;;3.73;;
8538;SDS011;4307;53.868;11.680;2023-12-20T04:49:38;10.93;;;3.43;;
8538;SDS011;4307;53.868;11.680;2023-12-20T04:52:05;9.37;;;3.20;;
8538;SDS011;4307;53.868;11.680;2023-12-20T04:54:32;11.40;;;3.40;;
8538;SDS011;4307;53.868;11.680;2023-12-20T04:56:59;7.40;;;3.27;;
8538;SDS011;4307;53.868;11.680;2023-12-20T04:59:26;13.87;;;3.93;;
8538;SDS011;4307;53.868;11.680;2023-12-20T05:01:53;10.57;;;4.00;;
8538;SDS011;4307;53.868;11.680;2023-12-20T05:04:19;9.03;;;3.10;;
8538;SDS011;4307;53.868;11.680;2023-12-20T05:06:46;16.63;;;4.33;;
8538;SDS011;4307;53.868;11.680;2023-12-20T05:09:14;9.10;;;3.53;;
8538;SDS011;4307;53.868;11.680;2023-12-20T05:11:41;9.33;;;3.60;;
8538;SDS011;4307;53.868;11.680;2023-12-20T05:14:09;7.83;;;3.80;;
8538;SDS011;4307;53.868;11.680;2023-12-20T05:16:36;16.73;;;4.20;;
8538;SDS011;4307;53.868;11.680;2023-12-20T05:19:02;19.40;;;4.43;;
8538;SDS011;4307;53.868;11.680;2023-12-20T05:21:31;13.37;;;3.97;;
8538;SDS011;4307;53.868;11.680;2023-12-20T05:23:58;12.27;;;4.47;;
8538;SDS011;4307;53.868;11.680;2023-12-20T05:26:25;12.13;;;4.37;;
8538;SDS011;4307;53.868;11.680;2023-12-20T05:28:51;11.23;;;4.57;;
8538;SDS011;4307;53.868;11.680;2023-12-20T05:31:19;9.47;;;4.27;;
8538;SDS011;4307;53.868;11.680;2023-12-20T05:33:46;16.83;;;4.67;;
8538;SDS011;4307;53.868;11.680;2023-12-20T05:36:13;12.33;;;4.93;;
8538;SDS011;4307;53.868;11.680;2023-12-20T05:38:40;13.07;;;4.13;;
8538;SDS011;4307;53.868;11.680;2023-12-20T05:41:07;14.70;;;4.60;;
8538;SDS011;4307;53.868;11.680;2023-12-20T05:43:33;15.87;;;4.10;;
8538;SDS011;4307;53.868;11.680;2023-12-20T05:46:00;11.90;;;4.20;;
8538;SDS011;4307;53.868;11.680;2023-12-20T05:48:28;16.73;;;4.77;;
8538;SDS011;4307;53.868;11.680;2023-12-20T05:50:55;13.27;;;4.87;;
8538;SDS011;4307;53.868;11.680;2023-12-20T05:53:21;16.77;;;4.80;;
8538;SDS011;4307;53.868;11.680;2023-12-20T05:55:48;14.33;;;5.00;;
8538;SDS011;4307;53.868;11.680;2023-12-20T05:58:15;12.33;;;5.13;;
8538;SDS011;4307;53.868;11.680;2023-12-20T06:00:41;13.60;;;4.70;;
8538;SDS011;4307;53.868;11.680;2023-12-20T06:03:08;12.77;;;4.80;;
8538;SDS011;4307;53.868;11.680;2023-12-20T06:05:36;13.10;;;5.30;;
8538;SDS011;4307;53.868;11.680;2023-12-20T06:08:03;10.53;;;5.17;;
8538;SDS011;4307;53.868;11.680;2023-12-20T06:10:30;23.47;;;5.50;;
8538;SDS011;4307;53.868;11.680;2023-12-20T06:12:56;12.10;;;4.53;;
8538;SDS011;4307;53.868;11.680;2023-12-20T06:15:24;15.03;;;5.70;;
8538;SDS011;4307;53.868;11.680;2023-12-20T06:17:50;15.00;;;5.47;;
8538;SDS011;4307;53.868;11.680;2023-12-20T06:20:17;16.10;;;4.43;;
8538;SDS011;4307;53.868;11.680;2023-12-20T06:22:45;10.80;;;4.57;;
8538;SDS011;4307;53.868;11.680;2023-12-20T06:25:11;10.73;;;4.73;;
8538;SDS011;4307;53.868;11.680;2023-12-20T06:27:38;10.33;;;4.10;;
8538;SDS011;4307;53.868;11.680;2023-12-20T06:30:06;13.40;;;4.90;;
8538;SDS011;4307;53.868;11.680;2023-12-20T06:32:34;9.43;;;3.97;;
8538;SDS011;4307;53.868;11.680;2023-12-20T06:35:01;12.83;;;4.93;;
8538;SDS011;4307;53.868;11.680;2023-12-20T06:37:28;10.37;;;4.77;;
8538;SDS011;4307;53.868;11.680;2023-12-20T06:39:56;11.13;;;4.37;;
8538;SDS011;4307;53.868;11.680;2023-12-20T06:42:23;10.50;;;4.83;;
8538;SDS011;4307;53.868;11.680;2023-12-20T06:44:49;16.67;;;4.80;;
8538;SDS011;4307;53.868;11.680;2023-12-20T06:47:16;12.67;;;4.63;;
8538;SDS011;4307;53.868;11.680;2023-12-20T06:49:42;15.43;;;4.80;;
8538;SDS011;4307;53.868;11.680;2023-12-20T06:52:09;6.47;;;3.83;;
8538;SDS011;4307;53.868;11.680;2023-12-20T06:54:36;11.23;;;4.83;;
8538;SDS011;4307;53.868;11.680;2023-12-20T06:57:04;9.60;;;3.77;;
8538;SDS011;4307;53.868;11.680;2023-12-20T06:59:31;10.73;;;4.63;;
8538;SDS011;4307;53.868;11.680;2023-12-20T07:01:57;8.57;;;4.00;;
8538;SDS011;4307;53.868;11.680;2023-12-20T07:04:24;11.33;;;3.93;;
8538;SDS011;4307;53.868;11.680;2023-12-20T07:06:51;11.23;;;4.60;;
8538;SDS011;4307;53.868;11.680;2023-12-20T07:09:21;12.33;;;4.93;;
8538;SDS011;4307;53.868;11.680;2023-12-20T07:11:48;11.10;;;5.57;;
8538;SDS011;4307;53.868;11.680;2023-12-20T07:14:16;10.63;;;5.00;;
8538;SDS011;4307;53.868;11.680;2023-12-20T07:16:42;15.20;;;4.63;;
8538;SDS011;4307;53.868;11.680;2023-12-20T07:19:09;16.37;;;5.33;;
8538;SDS011;4307;53.868;11.680;2023-12-20T07:21:36;16.50;;;5.50;;
8538;SDS011;4307;53.868;11.680;2023-12-20T07:24:02;15.23;;;5.40;;
8538;SDS011;4307;53.868;11.680;2023-12-20T07:26:29;15.03;;;5.33;;
8538;SDS011;4307;53.868;11.680;2023-12-20T07:28:56;13.07;;;4.93;;
8538;SDS011;4307;53.868;11.680;2023-12-20T07:31:25;16.87;;;5.07;;
8538;SDS011;4307;53.868;11.680;2023-12-20T07:33:51;16.20;;;6.23;;
8538;SDS011;4307;53.868;11.680;2023-12-20T07:36:19;12.00;;;4.70;;
8538;SDS011;4307;53.868;11.680;2023-12-20T07:38:46;19.13;;;5.47;;
8538;SDS011;4307;53.868;11.680;2023-12-20T07:41:13;16.40;;;4.57;;
8538;SDS011;4307;53.868;11.680;2023-12-20T07:43:40;11.77;;;4.80;;
8538;SDS011;4307;53.868;11.680;2023-12-20T07:46:07;17.70;;;4.37;;
8538;SDS011;4307;53.868;11.680;2023-12-20T07:48:36;10.80;;;4.10;;
8538;SDS011;4307;53.868;11.680;2023-12-20T07:51:03;9.67;;;3.80;;
8538;SDS011;4307;53.868;11.680;2023-12-20T07:53:30;16.80;;;4.00;;
8538;SDS011;4307;53.868;11.680;2023-12-20T07:55:57;9.43;;;3.83;;
8538;SDS011;4307;53.868;11.680;2023-12-20T07:58:24;10.57;;;3.30;;
8538;SDS011;4307;53.868;11.680;2023-12-20T08:00:50;8.63;;;3.60;;
8538;SDS011;4307;53.868;11.680;2023-12-20T08:03:17;12.23;;;3.37;;
8538;SDS011;4307;53.868;11.680;2023-12-20T08:05:45;10.83;;;3.60;;
8538;SDS011;4307;53.868;11.680;2023-12-20T08:08:11;12.97;;;4.03;;
8538;SDS011;4307;53.868;11.680;2023-12-20T08:10:38;18.90;;;4.73;;
8538;SDS011;4307;53.868;11.680;2023-12-20T08:13:05;12.50;;;4.73;;
8538;SDS011;4307;53.868;11.680;2023-12-20T08:15:31;9.43;;;4.60;;
8538;SDS011;4307;53.868;11.680;2023-12-20T08:17:58;14.87;;;3.20;;
8538;SDS011;4307;53.868;11.680;2023-12-20T08:20:25;10.93;;;3.60;;
8538;SDS011;4307;53.868;11.680;2023-12-20T08:22:53;14.67;;;4.13;;
8538;SDS011;4307;53.868;11.680;2023-12-20T08:25:19;17.67;;;5.10;;
8538;SDS011;4307;53.868;11.680;2023-12-20T08:27:46;12.57;;;4.83;;
8538;SDS011;4307;53.868;11.680;2023-12-20T08:30:13;13.20;;;4.70;;
8538;SDS011;4307;53.868;11.680;2023-12-20T08:32:42;10.20;;;4.70;;
8538;SDS011;4307;53.868;11.680;2023-12-20T08:35:08;21.97;;;6.33;;
8538;SDS011;4307;53.868;11.680;2023-12-20T08:37:35;25.27;;;5.83;;
8538;SDS011;4307;53.868;11.680;2023-12-20T08:40:03;7.53;;;3.30;;
8538;SDS011;4307;53.868;11.680;2023-12-20T08:42:31;9.47;;;3.10;;
8538;SDS011;4307;53.868;11.680;2023-12-20T08:44:57;14.83;;;3.70;;
8538;SDS011;4307;53.868;11.680;2023-12-20T08:47:24;13.60;;;3.83;;
8538;SDS011;4307;53.868;11.680;2023-12-20T08:49:51;14.47;;;4.37;;
8538;SDS011;4307;53.868;11.680;2023-12-20T08:52:21;12.20;;;4.20;;
8538;SDS011;4307;53.868;11.680;2023-12-20T08:54:48;8.50;;;3.33;;
8538;SDS011;4307;53.868;11.680;2023-12-20T08:57:18;9.33;;;3.40;;
8538;SDS011;4307;53.868;11.680;2023-12-20T08:59:46;23.50;;;3.70;;
8538;SDS011;4307;53.868;11.680;2023-12-20T09:02:13;14.63;;;4.10;;
8538;SDS011;4307;53.868;11.680;2023-12-20T09:04:40;8.27;;;3.80;;
8538;SDS011;4307;53.868;11.680;2023-12-20T09:07:07;9.07;;;3.60;;
8538;SDS011;4307;53.868;11.680;2023-12-20T09:09:46;14.33;;;4.40;;
8538;SDS011;4307;53.868;11.680;2023-12-20T09:12:13;14.90;;;3.97;;
8538;SDS011;4307;53.868;11.680;2023-12-20T09:14:41;12.00;;;5.07;;
8538;SDS011;4307;53.868;11.680;2023-12-20T09:17:08;19.27;;;4.57;;
8538;SDS011;4307;53.868;11.680;2023-12-20T09:19:36;10.43;;;4.00;;
8538;SDS011;4307;53.868;11.680;2023-12-20T09:22:03;16.70;;;4.77;;
8538;SDS011;4307;53.868;11.680;2023-12-20T09:24:30;12.40;;;4.53;;
8538;SDS011;4307;53.868;11.680;2023-12-20T09:26:56;16.73;;;4.57;;
8538;SDS011;4307;53.868;11.680;2023-12-20T09:29:23;12.60;;;4.67;;
8538;SDS011;4307;53.868;11.680;2023-12-20T09:31:51;11.03;;;4.17;;
8538;SDS011;4307;53.868;11.680;2023-12-20T09:34:18;17.87;;;4.73;;
8538;SDS011;4307;53.868;11.680;2023-12-20T09:36:44;22.87;;;4.57;;
8538;SDS011;4307;53.868;11.680;2023-12-20T09:39:12;14.90;;;4.50;;
8538;SDS011;4307;53.868;11.680;2023-12-20T09:41:41;13.57;;;4.00;;
8538;SDS011;4307;53.868;11.680;2023-12-20T09:44:12;13.00;;;4.27;;
8538;SDS011;4307;53.868;11.680;2023-12-20T09:46:41;23.90;;;4.63;;
8538;SDS011;4307;53.868;11.680;2023-12-20T09:49:12;14.90;;;4.17;;
8538;SDS011;4307;53.868;11.680;2023-12-20T09:51:40;10.93;;;3.80;;
8538;SDS011;4307;53.868;11.680;2023-12-20T09:54:07;18.50;;;4.37;;
8538;SDS011;4307;53.868;11.680;2023-12-20T09:56:35;12.00;;;3.77;;
8538;SDS011;4307;53.868;11.680;2023-12-20T09:59:03;9.93;;;4.50;;
8538;SDS011;4307;53.868;11.680;2023-12-20T10:01:30;17.50;;;3.87;;
8538;SDS011;4307;53.868;11.680;2023-12-20T10:03:57;11.13;;;4.13;;
8538;SDS011;4307;53.868;11.680;2023-12-20T10:06:28;22.10;;;4.57;;
8538;SDS011;4307;53.868;11.680;2023-12-20T10:08:54;8.20;;;3.60;;
8538;SDS011;4307;53.868;11.680;2023-12-20T10:11:21;13.40;;;3.50;;
8538;SDS011;4307;53.868;11.680;2023-12-20T10:13:47;17.73;;;4.37;;
8538;SDS011;4307;53.868;11.680;2023-12-20T10:16:14;10.53;;;3.90;;
8538;SDS011;4307;53.868;11.680;2023-12-20T10:18:41;6.17;;;4.07;;
8538;SDS011;4307;53.868;11.680;2023-12-20T10:21:07;4.70;;;2.57;;
8538;SDS011;4307;53.868;11.680;2023-12-20T10:23:36;11.23;;;3.03;;
8538;SDS011;4307;53.868;11.680;2023-12-20T10:26:04;7.80;;;2.17;;
8538;SDS011;4307;53.868;11.680;2023-12-20T10:28:32;8.30;;;2.40;;
8538;SDS011;4307;53.868;11.680;2023-12-20T10:31:00;7.80;;;2.40;;
8538;SDS011;4307;53.868;11.680;2023-12-20T10:33:27;6.13;;;2.87;;
8538;SDS011;4307;53.868;11.680;2023-12-20T10:35:55;4.67;;;1.83;;
8538;SDS011;4307;53.868;11.680;2023-12-20T10:38:22;4.63;;;1.90;;
8538;SDS011;4307;53.868;11.680;2023-12-20T10:40:50;2.83;;;1.60;;
8538;SDS011;4307;53.868;11.680;2023-12-20T10:43:20;4.50;;;2.00;;
8538;SDS011;4307;53.868;11.680;2023-12-20T10:45:48;5.60;;;2.33;;
8538;SDS011;4307;53.868;11.680;2023-12-20T10:48:15;6.80;;;2.00;;
8538;SDS011;4307;53.868;11.680;2023-12-20T10:50:42;4.10;;;2.50;;
8538;SDS011;4307;53.868;11.680;2023-12-20T10:53:10;6.00;;;1.77;;
8538;SDS011;4307;53.868;11.680;2023-12-20T10:55:37;7.40;;;1.37;;
8538;SDS011;4307;53.868;11.680;2023-12-20T10:58:06;2.83;;;1.30;;
8538;SDS011;4307;53.868;11.680;2023-12-20T11:00:34;9.23;;;1.80;;
8538;SDS011;4307;53.868;11.680;2023-12-20T11:03:02;4.10;;;1.17;;
8538;SDS011;4307;53.868;11.680;2023-12-20T11:05:31;4.23;;;1.37;;
8538;SDS011;4307;53.868;11.680;2023-12-20T11:08:03;5.47;;;1.30;;
8538;SDS011;4307;53.868;11.680;2023-12-20T11:10:36;3.80;;;1.27;;
8538;SDS011;4307;53.868;11.680;2023-12-20T11:13:10;6.83;;;1.20;;
8538;SDS011;4307;53.868;11.680;2023-12-20T11:15:41;3.93;;;0.97;;
8538;SDS011;4307;53.868;11.680;2023-12-20T11:18:09;6.00;;;1.10;;
8538;SDS011;4307;53.868;11.680;2023-12-20T11:20:36;1.80;;;0.90;;
8538;SDS011;4307;53.868;11.680;2023-12-20T11:23:04;3.27;;;1.00;;
8538;SDS011;4307;53.868;11.680;2023-12-20T11:25:35;6.23;;;1.00;;
8538;SDS011;4307;53.868;11.680;2023-12-20T11:28:14;5.53;;;1.27;;
8538;SDS011;4307;53.868;11.680;2023-12-20T11:30:45;1.87;;;0.93;;
8538;SDS011;4307;53.868;11.680;2023-12-20T11:33:13;2.73;;;1.23;;
8538;SDS011;4307;53.868;11.680;2023-12-20T11:35:40;2.73;;;1.07;;
8538;SDS011;4307;53.868;11.680;2023-12-20T11:38:08;3.67;;;1.07;;
8538;SDS011;4307;53.868;11.680;2023-12-20T11:40:35;1.57;;;1.00;;
8538;SDS011;4307;53.868;11.680;2023-12-20T11:43:02;2.80;;;1.10;;
8538;SDS011;4307;53.868;11.680;2023-12-20T11:45:31;4.67;;;1.13;;
8538;SDS011;4307;53.868;11.680;2023-12-20T11:47:59;3.73;;;0.90;;
8538;SDS011;4307;53.868;11.680;2023-12-20T11:50:27;4.97;;;1.40;;
8538;SDS011;4307;53.868;11.680;2023-12-20T11:52:55;2.00;;;0.80;;
8538;SDS011;4307;53.868;11.680;2023-12-20T11:55:22;4.10;;;1.10;;
8538;SDS011;4307;53.868;11.680;2023-12-20T11:57:49;3.13;;;1.03;;
8538;SDS011;4307;53.868;11.680;2023-12-20T12:00:17;7.67;;;1.97;;
8538;SDS011;4307;53.868;11.680;2023-12-20T12:02:51;5.20;;;1.10;;
8538;SDS011;4307;53.868;11.680;2023-12-20T12:05:21;3.90;;;1.37;;
8538;SDS011;4307;53.868;11.680;2023-12-20T12:07:48;3.53;;;1.80;;
8538;SDS011;4307;53.868;11.680;2023-12-20T12:10:14;10.73;;;2.50;;
8538;SDS011;4307;53.868;11.680;2023-12-20T12:12:41;4.67;;;2.50;;
8538;SDS011;4307;53.868;11.680;2023-12-20T12:15:08;5.77;;;1.40;;
8538;SDS011;4307;53.868;11.680;2023-12-20T12:17:35;2.67;;;1.30;;
8538;SDS011;4307;53.868;11.680;2023-12-20T12:20:04;5.87;;;1.50;;
8538;SDS011;4307;53.868;11.680;2023-12-20T12:22:32;5.83;;;1.23;;
8538;SDS011;4307;53.868;11.680;2023-12-20T12:24:59;6.63;;;1.30;;
8538;SDS011;4307;53.868;11.680;2023-12-20T12:27:35;3.70;;;0.90;;
8538;SDS011;4307;53.868;11.680;2023-12-20T12:30:03;6.60;;;1.13;;
8538;SDS011;4307;53.868;11.680;2023-12-20T12:32:32;2.70;;;1.00;;
8538;SDS011;4307;53.868;11.680;2023-12-20T12:34:59;1.73;;;1.10;;
8538;SDS011;4307;53.868;11.680;2023-12-20T12:37:27;6.63;;;1.37;;
8538;SDS011;4307;53.868;11.680;2023-12-20T12:39:53;6.40;;;1.60;;
8538;SDS011;4307;53.868;11.680;2023-12-20T12:42:20;3.60;;;0.83;;
8538;SDS011;4307;53.868;11.680;2023-12-20T12:44:50;2.33;;;1.17;;
8538;SDS011;4307;53.868;11.680;2023-12-20T12:47:17;2.77;;;1.33;;
8538;SDS011;4307;53.868;11.680;2023-12-20T12:49:44;2.80;;;1.30;;
8538;SDS011;4307;53.868;11.680;2023-12-20T12:52:11;2.13;;;1.00;;
8538;SDS011;4307;53.868;11.680;2023-12-20T12:54:39;2.73;;;1.00;;
8538;SDS011;4307;53.868;11.680;2023-12-20T12:57:07;3.73;;;1.23;;
8538;SDS011;4307;53.868;11.680;2023-12-20T12:59:34;4.70;;;1.10;;
8538;SDS011;4307;53.868;11.680;2023-12-20T13:02:00;3.83;;;0.60;;
8538;SDS011;4307;53.868;11.680;2023-12-20T13:04:27;4.93;;;1.07;;
8538;SDS011;4307;53.868;11.680;2023-12-20T13:06:54;3.67;;;1.20;;
8538;SDS011;4307;53.868;11.680;2023-12-20T13:09:22;6.37;;;2.03;;
8538;SDS011;4307;53.868;11.680;2023-12-20T13:11:50;6.30;;;1.10;;
8538;SDS011;4307;53.868;11.680;2023-12-20T13:14:16;2.87;;;0.93;;
8538;SDS011;4307;53.868;11.680;2023-12-20T13:16:43;2.87;;;1.13;;
8538;SDS011;4307;53.868;11.680;2023-12-20T13:19:10;5.33;;;1.70;;
8538;SDS011;4307;53.868;11.680;2023-12-20T13:21:37;6.97;;;1.33;;
8538;SDS011;4307;53.868;11.680;2023-12-20T13:24:05;3.43;;;1.00;;
8538;SDS011;4307;53.868;11.680;2023-12-20T13:26:31;7.67;;;1.83;;
8538;SDS011;4307;53.868;11.680;2023-12-20T13:29:00;8.00;;;1.90;;
8538;SDS011;4307;53.868;11.680;2023-12-20T13:31:27;5.23;;;1.43;;
8538;SDS011;4307;53.868;11.680;2023-12-20T13:33:54;10.10;;;2.00;;
8538;SDS011;4307;53.868;11.680;2023-12-20T13:36:20;7.27;;;2.13;;
8538;SDS011;4307;53.868;11.680;2023-12-20T13:38:48;9.97;;;2.17;;
8538;SDS011;4307;53.868;11.680;2023-12-20T13:41:15;3.87;;;1.87;;
8538;SDS011;4307;53.868;11.680;2023-12-20T13:43:41;8.10;;;2.40;;
8538;SDS011;4307;53.868;11.680;2023-12-20T13:46:10;7.30;;;2.20;;
8538;SDS011;4307;53.868;11.680;2023-12-20T13:48:36;5.90;;;2.07;;
8538;SDS011;4307;53.868;11.680;2023-12-20T13:51:03;4.33;;;1.77;;
8538;SDS011;4307;53.868;11.680;2023-12-20T13:53:30;8.17;;;1.90;;
8538;SDS011;4307;53.868;11.680;2023-12-20T13:55:57;5.10;;;1.70;;
8538;SDS011;4307;53.868;11.680;2023-12-20T13:58:25;6.70;;;2.30;;
8538;SDS011;4307;53.868;11.680;2023-12-20T14:00:51;12.03;;;2.57;;
8538;SDS011;4307;53.868;11.680;2023-12-20T14:03:19;11.20;;;2.30;;
8538;SDS011;4307;53.868;11.680;2023-12-20T14:05:46;8.40;;;2.30;;
8538;SDS011;4307;53.868;11.680;2023-12-20T14:08:12;7.53;;;2.60;;
8538;SDS011;4307;53.868;11.680;2023-12-20T14:10:39;9.77;;;1.67;;
8538;SDS011;4307;53.868;11.680;2023-12-20T14:13:06;7.63;;;1.97;;
8538;SDS011;4307;53.868;11.680;2023-12-20T14:15:32;7.03;;;2.23;;
8538;SDS011;4307;53.868;11.680;2023-12-20T14:18:02;10.87;;;2.20;;
8538;SDS011;4307;53.868;11.680;2023-12-20T14:20:31;9.40;;;2.27;;
8538;SDS011;4307;53.868;11.680;2023-12-20T14:22:59;13.87;;;2.53;;
8538;SDS011;4307;53.868;11.680;2023-12-20T14:25:26;11.30;;;2.83;;
8538;SDS011;4307;53.868;11.680;2023-12-20T14:27:52;5.93;;;2.50;;
8538;SDS011;4307;53.868;11.680;2023-12-20T14:30:19;9.70;;;2.40;;
8538;SDS011;4307;53.868;11.680;2023-12-20T14:32:46;7.50;;;2.27;;
8538;SDS011;4307;53.868;11.680;2023-12-20T14:35:13;11.70;;;2.60;;
8538;SDS011;4307;53.868;11.680;2023-12-20T14:37:41;11.70;;;2.80;;
8538;SDS011;4307;53.868;11.680;2023-12-20T14:40:08;5.40;;;2.40;;
8538;SDS011;4307;53.868;11.680;2023-12-20T14:42:40;7.17;;;2.33;;
8538;SDS011;4307;53.868;11.680;2023-12-20T14:45:07;14.17;;;3.10;;
8538;SDS011;4307;53.868;11.680;2023-12-20T14:47:34;8.30;;;2.67;;
8538;SDS011;4307;53.868;11.680;2023-12-20T14:50:01;9.33;;;2.53;;
8538;SDS011;4307;53.868;11.680;2023-12-20T14:52:28;9.17;;;2.40;;
8538;SDS011;4307;53.868;11.680;2023-12-20T14:54:56;10.93;;;3.60;;